createdAt,value
2018-06-09T00:02:11.144Z,84.19
2018-06-09T00:04:41.078Z,84.44
2018-06-09T00:07:10.889Z,84.85
2018-06-09T00:09:41.638Z,85.41
2018-06-09T00:12:11.448Z,84.81
2018-06-09T00:14:41.320Z,84.74
2018-06-09T00:17:11.094Z,84.15
2018-06-09T00:19:40.979Z,84.61
2018-06-09T00:22:10.770Z,84.81
2018-06-09T00:24:40.826Z,84.93
2018-06-09T00:27:10.538Z,84.74
2018-06-09T00:29:40.296Z,85.41
2018-06-09T00:32:10.122Z,84.36
2018-06-09T00:34:39.874Z,85.11
2018-06-09T00:37:09.777Z,84.84
2018-06-09T00:39:39.584Z,84.91
2018-06-09T00:42:09.414Z,84.89
2018-06-09T00:44:39.510Z,85.43
2018-06-09T00:47:09.586Z,84.82
2018-06-09T00:49:40.039Z,85.02
2018-06-09T00:52:09.881Z,84.70
2018-06-09T00:54:40.212Z,85.33
2018-06-09T00:57:10.027Z,85.13
2018-06-09T00:59:39.863Z,85.53
2018-06-09T01:02:09.851Z,84.79
2018-06-09T01:04:39.636Z,85.15
2018-06-09T01:07:09.451Z,85.39
2018-06-09T01:09:39.219Z,85.29
2018-06-09T01:12:09.113Z,84.71
2018-06-09T01:14:39.069Z,84.48
2018-06-09T01:17:09.417Z,84.43
2018-06-09T01:19:39.284Z,84.63
2018-06-09T01:22:09.085Z,84.45
2018-06-09T01:24:38.902Z,84.96
2018-06-09T01:27:08.699Z,85.72
2018-06-09T01:29:38.836Z,86.22
2018-06-09T01:32:08.579Z,86.32
2018-06-09T01:34:38.521Z,86.57
2018-06-09T01:37:08.262Z,87.11
2018-06-09T01:39:38.028Z,87.23
2018-06-09T01:42:07.802Z,86.60
2018-06-09T01:44:37.597Z,86.27
2018-06-09T01:47:07.481Z,87.12
2018-06-09T01:49:37.333Z,88.16
2018-06-09T01:52:07.191Z,87.75
2018-06-09T01:54:37.056Z,88.42
2018-06-09T01:57:06.911Z,88.29
2018-06-09T01:59:36.715Z,87.54
2018-06-09T02:02:06.643Z,88.17
2018-06-09T02:04:36.701Z,89.14
2018-06-09T02:07:06.519Z,87.96
2018-06-09T02:09:36.329Z,88.79
2018-06-09T02:12:06.109Z,88.61
2018-06-09T02:14:35.969Z,88.43
2018-06-09T02:17:05.923Z,88.42
2018-06-09T02:19:35.693Z,88.00
2018-06-09T02:22:05.647Z,87.45
2018-06-09T02:24:35.465Z,86.54
2018-06-09T02:27:05.345Z,86.74
2018-06-09T02:29:35.185Z,85.58
2018-06-09T02:32:05.110Z,86.27
2018-06-09T02:34:35.679Z,85.92
2018-06-09T02:37:05.604Z,86.30
2018-06-09T02:39:35.413Z,86.96
2018-06-09T02:42:05.618Z,86.22
2018-06-09T02:44:35.453Z,86.39
2018-06-09T02:47:05.631Z,86.66
2018-06-09T02:49:35.502Z,86.21
2018-06-09T02:52:05.292Z,85.94
2018-06-09T02:54:35.290Z,86.42
2018-06-09T02:57:05.184Z,86.68
2018-06-09T02:59:34.896Z,86.41
2018-06-09T03:02:04.695Z,86.99
2018-06-09T03:04:34.446Z,86.31
2018-06-09T03:07:04.266Z,86.07
2018-06-09T03:09:34.131Z,86.12
2018-06-09T03:12:04.004Z,85.37
2018-06-09T03:14:33.888Z,85.16
2018-06-09T03:17:03.870Z,85.51
2018-06-09T03:19:33.638Z,86.14
2018-06-09T03:22:03.438Z,85.63
2018-06-09T03:24:33.396Z,86.28
2018-06-09T03:27:03.890Z,86.16
2018-06-09T03:29:33.722Z,86.36
2018-06-09T03:32:03.942Z,86.21
2018-06-09T03:34:33.789Z,86.12
2018-06-09T03:37:04.184Z,85.53
2018-06-09T03:39:33.984Z,86.08
2018-06-09T03:42:03.826Z,86.14
2018-06-09T03:44:33.610Z,85.97
2018-06-09T03:47:03.360Z,85.80
2018-06-09T03:49:33.840Z,85.75
2018-06-09T03:52:03.666Z,85.49
2018-06-09T03:54:33.498Z,85.51
2018-06-09T03:57:03.328Z,86.00
2018-06-09T03:59:33.289Z,85.54
2018-06-09T04:02:02.705Z,85.25
2018-06-09T04:04:32.642Z,85.33
2018-06-09T04:07:02.553Z,84.54
2018-06-09T04:09:32.360Z,82.82
2018-06-09T04:12:02.179Z,81.14
2018-06-09T04:14:33.566Z,80.12
2018-06-09T04:17:03.857Z,78.46
2018-06-09T04:19:34.200Z,75.48
2018-06-09T04:22:05.160Z,75.62
2018-06-09T04:24:35.488Z,74.09
2018-06-09T04:27:05.929Z,73.81
2018-06-09T04:29:36.258Z,74.39
2018-06-09T04:32:06.748Z,75.37
2018-06-09T04:34:37.700Z,76.43
2018-06-09T04:37:08.169Z,77.28
2018-06-09T04:39:38.566Z,77.72
2018-06-09T04:42:08.927Z,78.52
2018-06-09T04:44:39.872Z,79.23
2018-06-09T04:47:09.729Z,79.55
2018-06-09T04:49:40.143Z,79.93
2018-06-09T04:52:09.989Z,80.14
2018-06-09T04:54:40.525Z,80.19
2018-06-09T04:57:10.995Z,80.03
2018-06-09T04:59:42.005Z,79.92
2018-06-09T05:02:12.371Z,79.70
2018-06-09T05:04:42.837Z,79.53
2018-06-09T05:07:13.185Z,79.21
2018-06-09T05:09:43.683Z,78.46
2018-06-09T05:12:14.065Z,78.31
2018-06-09T05:14:44.497Z,75.46
2018-06-09T05:17:15.217Z,72.35
2018-06-09T05:19:45.672Z,68.68
2018-06-09T05:22:16.101Z,62.33
2018-06-09T05:24:47.334Z,61.04
2018-06-09T05:27:17.665Z,59.23
2018-06-09T05:29:47.952Z,55.18
2018-06-09T05:32:18.347Z,55.04
2018-06-09T05:34:48.684Z,51.99
2018-06-09T05:37:19.231Z,52.11
2018-06-09T05:39:50.138Z,55.54
2018-06-09T05:42:20.897Z,61.93
2018-06-09T05:44:51.381Z,65.42
2018-06-09T05:47:21.767Z,67.89
2018-06-09T05:49:52.086Z,70.40
2018-06-09T05:52:22.452Z,70.42
2018-06-09T05:54:52.760Z,69.28
2018-06-09T05:57:23.267Z,69.87
2018-06-09T05:59:53.637Z,69.11
2018-06-09T06:02:23.960Z,69.23
2018-06-09T06:04:54.681Z,69.88
2018-06-09T06:07:25.039Z,70.29
2018-06-09T06:09:55.441Z,71.61
2018-06-09T06:12:25.714Z,71.55
2018-06-09T06:14:56.135Z,73.07
2018-06-09T06:17:26.467Z,72.81
2018-06-09T06:19:56.908Z,72.88
2018-06-09T06:22:27.181Z,71.45
2018-06-09T06:24:57.481Z,71.78
2018-06-09T06:27:27.810Z,72.48
2018-06-09T06:29:58.082Z,73.60
2018-06-09T06:32:28.398Z,73.03
2018-06-09T06:34:58.676Z,73.47
2018-06-09T06:37:28.988Z,74.42
2018-06-09T06:39:59.256Z,74.33
2018-06-09T06:42:29.615Z,74.58
2018-06-09T06:44:59.984Z,74.50
2018-06-09T06:47:30.416Z,75.10
2018-06-09T06:50:00.748Z,75.60
2018-06-09T06:52:31.068Z,73.26
2018-06-09T06:55:02.320Z,71.78
2018-06-09T06:57:32.766Z,70.20
2018-06-09T07:00:03.056Z,69.54
2018-06-09T07:02:33.580Z,67.85
2018-06-09T07:05:03.886Z,67.40
2018-06-09T07:07:34.258Z,67.32
2018-06-09T07:10:04.874Z,67.59
2018-06-09T07:12:35.292Z,66.87
2018-06-09T07:15:05.902Z,65.01
2018-06-09T07:17:36.310Z,63.91
2018-06-09T07:20:06.606Z,62.93
2018-06-09T07:22:36.948Z,63.34
2018-06-09T07:25:07.255Z,63.56
2018-06-09T07:27:37.598Z,63.96
2018-06-09T07:30:08.529Z,64.31
2018-06-09T07:32:38.840Z,65.67
2018-06-09T07:35:09.271Z,66.76
2018-06-09T07:37:39.843Z,67.19
2018-06-09T07:40:10.164Z,67.46
2018-06-09T07:42:40.624Z,68.51
2018-06-09T07:45:10.888Z,68.99
2018-06-09T07:47:41.209Z,68.13
2018-06-09T07:50:12.483Z,67.88
2018-06-09T07:52:42.960Z,67.17
2018-06-09T07:55:13.272Z,66.69
2018-06-09T07:57:43.714Z,65.52
2018-06-09T08:00:14.068Z,66.31
2018-06-09T08:02:45.004Z,65.60
2018-06-09T08:05:15.325Z,64.69
2018-06-09T08:07:45.632Z,61.91
2018-06-09T08:10:15.892Z,60.92
2018-06-09T08:12:46.226Z,61.55
2018-06-09T08:15:17.918Z,58.63
2018-06-09T08:17:48.237Z,58.61
2018-06-09T08:20:18.584Z,58.71
2018-06-09T08:22:48.910Z,60.00
2018-06-09T08:25:19.262Z,60.01
2018-06-09T08:27:49.650Z,60.35
2018-06-09T08:30:20.106Z,58.52
2018-06-09T08:32:50.417Z,59.28
2018-06-09T08:35:20.742Z,60.15
2018-06-09T08:37:51.080Z,61.08
2018-06-09T08:40:21.360Z,61.51
2018-06-09T08:42:51.734Z,62.68
2018-06-09T08:45:22.035Z,60.56
2018-06-09T08:47:52.512Z,59.14
2018-06-09T08:50:22.840Z,57.33
2018-06-09T08:52:53.192Z,57.50
2018-06-09T08:55:23.558Z,59.42
2018-06-09T08:57:54.038Z,58.38
2018-06-09T09:00:24.358Z,59.51
2018-06-09T09:02:54.705Z,57.88
2018-06-09T09:05:24.999Z,57.21
2018-06-09T09:07:56.090Z,57.78
2018-06-09T09:10:27.084Z,55.70
2018-06-09T09:12:57.416Z,52.55
2018-06-09T09:15:27.761Z,52.74
2018-06-09T09:17:58.191Z,54.07
2018-06-09T09:20:29.958Z,54.36
2018-06-09T09:23:00.943Z,54.93
2018-06-09T09:25:31.270Z,53.59
2018-06-09T09:28:01.894Z,52.75
2018-06-09T09:30:32.203Z,53.53
2018-06-09T09:33:02.581Z,53.43
2018-06-09T09:35:33.027Z,56.30
2018-06-09T09:38:03.322Z,53.22
2018-06-09T09:40:33.699Z,54.42
2018-06-09T09:43:04.934Z,53.23
2018-06-09T09:45:35.233Z,54.88
2018-06-09T09:48:05.669Z,54.95
2018-06-09T09:50:35.971Z,52.72
2018-06-09T09:53:06.634Z,54.23
2018-06-09T09:55:37.120Z,54.71
2018-06-09T09:58:07.491Z,52.42
2018-06-09T10:00:38.732Z,54.27
2018-06-09T10:03:09.118Z,52.58
2018-06-09T10:05:39.481Z,50.80
2018-06-09T10:08:09.900Z,48.07
2018-06-09T10:10:40.199Z,49.84
2018-06-09T10:13:10.561Z,49.67
2018-06-09T10:15:40.976Z,51.10
2018-06-09T10:18:11.258Z,51.07
2018-06-09T10:20:42.218Z,50.99
2018-06-09T10:23:12.568Z,50.89
2018-06-09T10:25:42.831Z,52.25
2018-06-09T10:28:13.106Z,51.68
2018-06-09T10:30:43.461Z,50.77
2018-06-09T10:33:13.729Z,48.64
2018-06-09T10:35:44.058Z,49.11
2018-06-09T10:38:14.523Z,49.54
2018-06-09T10:40:44.979Z,50.07
2018-06-09T10:43:16.344Z,50.44
2018-06-09T10:45:46.591Z,49.63
2018-06-09T10:48:16.884Z,45.71
2018-06-09T10:50:47.376Z,48.49
2018-06-09T10:53:17.800Z,46.26
2018-06-09T10:55:48.951Z,45.06
2018-06-09T10:58:19.263Z,47.25
2018-06-09T11:00:49.573Z,48.34
2018-06-09T11:03:19.970Z,48.14
2018-06-09T11:05:50.278Z,46.49
2018-06-09T11:08:20.557Z,44.01
2018-06-09T11:10:50.865Z,44.55
2018-06-09T11:13:21.256Z,43.88
2018-06-09T11:15:51.609Z,45.37
2018-06-09T11:18:21.936Z,44.84
2018-06-09T11:20:52.503Z,44.98
2018-06-09T11:23:22.884Z,48.34
2018-06-09T11:25:53.227Z,47.55
2018-06-09T11:28:25.001Z,49.52
2018-06-09T11:30:55.515Z,50.44
2018-06-09T11:33:25.965Z,49.23
2018-06-09T11:35:56.471Z,47.92
2018-06-09T11:38:26.855Z,47.52
2018-06-09T11:40:57.221Z,47.73
2018-06-09T11:43:27.847Z,45.94
2018-06-09T11:45:58.225Z,44.29
2018-06-09T11:48:28.635Z,44.70
2018-06-09T11:50:59.016Z,45.71
2018-06-09T11:53:29.371Z,45.90
2018-06-09T11:56:00.651Z,45.18
2018-06-09T11:58:31.741Z,45.91
2018-06-09T12:01:02.103Z,44.90
2018-06-09T12:03:32.525Z,43.89
2018-06-09T12:06:02.839Z,47.06
2018-06-09T12:08:33.193Z,46.51
2018-06-09T12:11:03.624Z,43.69
2018-06-09T12:13:33.931Z,44.74
2018-06-09T12:16:04.109Z,42.21
2018-06-09T12:18:34.236Z,40.66
2018-06-09T12:21:04.301Z,41.40
2018-06-09T12:23:34.359Z,43.27
2018-06-09T12:26:04.639Z,43.81
2018-06-09T12:28:34.759Z,44.86
2018-06-09T12:31:04.829Z,41.69
2018-06-09T12:33:35.027Z,43.22
2018-06-09T12:36:05.145Z,44.33
2018-06-09T12:38:35.165Z,43.71
2018-06-09T12:41:05.578Z,44.56
2018-06-09T12:43:35.707Z,42.83
2018-06-09T12:46:05.767Z,41.51
2018-06-09T12:48:35.840Z,43.25
2018-06-09T12:51:06.350Z,43.30
2018-06-09T12:53:36.498Z,43.20
2018-06-09T12:56:06.861Z,42.62
2018-06-09T12:58:37.299Z,44.29
2018-06-09T13:01:07.889Z,44.86
2018-06-09T13:03:38.243Z,42.71
2018-06-09T13:06:08.710Z,43.83
2018-06-09T13:08:39.085Z,44.11
2018-06-09T13:11:09.187Z,43.83
2018-06-09T13:13:39.367Z,42.57
2018-06-09T13:16:09.627Z,43.49
2018-06-09T13:18:39.784Z,42.54
2018-06-09T13:21:09.921Z,41.52
2018-06-09T13:23:39.993Z,42.30
2018-06-09T13:26:10.080Z,42.23
2018-06-09T13:28:40.173Z,40.79
2018-06-09T13:31:10.198Z,40.34
2018-06-09T13:33:40.266Z,40.57
2018-06-09T13:36:10.360Z,42.42
2018-06-09T13:38:40.919Z,44.04
2018-06-09T13:41:11.259Z,43.80
2018-06-09T13:43:41.600Z,42.82
2018-06-09T13:46:12.063Z,44.02
2018-06-09T13:48:42.657Z,43.15
2018-06-09T13:51:12.951Z,42.05
2018-06-09T13:53:43.443Z,42.82
2018-06-09T13:56:13.623Z,39.08
2018-06-09T13:58:43.713Z,39.86
2018-06-09T14:01:13.761Z,41.40
2018-06-09T14:03:44.321Z,40.87
2018-06-09T14:06:14.443Z,39.37
2018-06-09T14:08:44.673Z,39.54
2018-06-09T14:11:15.326Z,39.12
2018-06-09T14:13:52.733Z,41.17
2018-06-09T14:16:23.034Z,39.40
2018-06-09T14:18:53.353Z,40.87
2018-06-09T14:21:23.616Z,39.89
2018-06-09T14:23:53.793Z,39.10
2018-06-09T14:26:23.910Z,39.96
2018-06-09T14:28:53.996Z,39.86
2018-06-09T14:31:24.132Z,39.51
2018-06-09T14:33:54.191Z,40.14
2018-06-09T14:36:23.854Z,40.05
2018-06-09T14:38:53.927Z,39.42
2018-06-09T14:41:24.148Z,39.90
2018-06-09T14:43:54.993Z,39.32
2018-06-09T14:46:25.184Z,39.19
2018-06-09T14:48:55.181Z,40.31
2018-06-09T14:51:25.204Z,39.75
2018-06-09T14:54:01.062Z,39.66
2018-06-09T14:56:31.191Z,40.13
2018-06-09T14:59:01.654Z,39.41
2018-06-09T15:01:32.421Z,40.26
2018-06-09T15:04:02.453Z,39.72
2018-06-09T15:06:32.835Z,38.60
2018-06-09T15:09:03.330Z,38.94
2018-06-09T15:11:33.472Z,40.11
2018-06-09T15:14:03.832Z,38.82
2018-06-09T15:16:34.472Z,40.49
2018-06-09T15:19:05.156Z,41.31
2018-06-09T15:21:35.224Z,42.40
2018-06-09T15:24:05.400Z,40.16
2018-06-09T15:26:35.755Z,40.60
2018-06-09T15:29:05.954Z,42.30
2018-06-09T15:31:36.328Z,39.95
2018-06-09T15:34:06.663Z,41.45
2018-06-09T15:36:36.690Z,41.84
2018-06-09T15:39:08.772Z,40.99
2018-06-09T15:41:38.811Z,37.57
2018-06-09T15:44:08.828Z,39.84
2018-06-09T15:46:39.135Z,39.69
2018-06-09T15:49:10.061Z,39.09
2018-06-09T15:51:40.140Z,38.12
2018-06-09T15:54:10.253Z,38.45
2018-06-09T15:56:40.295Z,41.21
2018-06-09T15:59:10.938Z,42.55
2018-06-09T16:01:41.262Z,43.01
2018-06-09T16:04:11.542Z,42.78
2018-06-09T16:06:41.811Z,41.94
2018-06-09T16:09:12.246Z,42.03
2018-06-09T16:11:42.659Z,43.04
2018-06-09T16:14:13.011Z,43.42
2018-06-09T16:16:43.431Z,43.06
2018-06-09T16:19:13.726Z,41.72
2018-06-09T16:21:44.104Z,42.48
2018-06-09T16:24:14.671Z,43.03
2018-06-09T16:26:45.017Z,41.02
2018-06-09T16:29:15.401Z,41.63
2018-06-09T16:31:46.390Z,42.59
2018-06-09T16:34:16.755Z,41.30
2018-06-09T16:36:47.101Z,42.97
2018-06-09T16:39:17.831Z,42.13
2018-06-09T16:41:48.214Z,43.03
2018-06-09T16:44:18.594Z,43.21
2018-06-09T16:46:48.636Z,42.43
2018-06-09T16:49:18.750Z,41.46
2018-06-09T16:51:49.160Z,42.48
2018-06-09T16:54:19.706Z,42.90
2018-06-09T16:56:49.985Z,42.31
2018-06-09T16:59:21.102Z,43.30
2018-06-09T17:01:51.466Z,44.19
2018-06-09T17:04:21.781Z,44.92
2018-06-09T17:06:52.161Z,44.01
2018-06-09T17:09:22.509Z,45.09
2018-06-09T17:11:52.865Z,45.28
2018-06-09T17:14:22.860Z,46.58
2018-06-09T17:16:56.100Z,46.63
2018-06-09T17:19:26.538Z,48.48
2018-06-09T17:21:56.900Z,49.09
2018-06-09T17:24:27.263Z,50.02
2018-06-09T17:26:57.553Z,50.02
2018-06-09T17:29:27.927Z,51.03
2018-06-09T17:31:58.228Z,52.71
2018-06-09T17:38:05.514Z,55.12
2018-06-09T17:40:35.933Z,56.33
2018-06-09T17:43:06.228Z,56.16
2018-06-09T17:45:36.515Z,57.14
2018-06-09T17:48:06.904Z,56.81
2018-06-09T17:50:37.379Z,57.68
2018-06-09T17:53:07.863Z,58.28
2018-06-09T17:55:38.154Z,58.27
2018-06-09T17:58:08.517Z,59.34
2018-06-09T18:00:38.909Z,59.07
2018-06-09T18:03:09.263Z,59.10
2018-06-09T18:05:39.630Z,58.34
2018-06-09T18:08:10.018Z,59.12
2018-06-09T18:10:40.338Z,58.52
2018-06-09T18:13:10.764Z,57.89
2018-06-09T18:15:41.204Z,56.56
2018-06-09T18:18:11.727Z,56.84
2018-06-09T18:20:42.325Z,56.17
2018-06-09T18:23:12.685Z,56.23
2018-06-09T18:25:43.041Z,56.10
2018-06-09T18:28:13.885Z,56.93
2018-06-09T18:30:44.203Z,57.14
2018-06-09T18:33:14.554Z,58.17
2018-06-09T18:35:44.867Z,58.57
2018-06-09T18:38:15.209Z,58.80
2018-06-09T18:40:45.562Z,58.71
2018-06-09T18:43:15.875Z,58.71
2018-06-09T18:45:46.198Z,58.83
2018-06-09T18:48:16.575Z,58.92
2018-06-09T18:50:47.003Z,58.62
2018-06-09T18:53:17.511Z,59.04
2018-06-09T18:55:47.825Z,59.35
2018-06-09T18:58:18.231Z,59.03
2018-06-09T19:00:48.585Z,59.42
2018-06-09T19:03:18.939Z,60.20
2018-06-09T19:05:49.359Z,60.18
2018-06-09T19:08:19.383Z,60.83
2018-06-09T19:10:49.786Z,60.67
2018-06-09T19:13:20.118Z,60.60
2018-06-09T19:15:50.535Z,60.09
2018-06-09T19:18:21.329Z,60.87
2018-06-09T19:20:51.689Z,60.88
2018-06-09T19:23:22.061Z,61.68
2018-06-09T19:25:52.651Z,62.08
2018-06-09T19:28:23.037Z,61.48
2018-06-09T19:30:53.341Z,61.42
2018-06-09T19:33:23.821Z,61.36
2018-06-09T19:35:54.254Z,61.18
2018-06-09T19:38:24.631Z,60.65
2018-06-09T19:40:55.038Z,61.09
2018-06-09T19:43:25.583Z,61.21
2018-06-09T19:45:56.024Z,61.63
2018-06-09T19:48:26.319Z,61.77
2018-06-09T19:50:56.843Z,62.00
2018-06-09T19:53:27.345Z,62.45
2018-06-09T19:55:57.779Z,62.45
2018-06-09T19:58:28.175Z,62.90
2018-06-09T20:00:58.737Z,62.37
2018-06-09T20:03:29.051Z,62.55
2018-06-09T20:05:59.467Z,62.93
2018-06-09T20:08:30.020Z,63.02
2018-06-09T20:11:02.009Z,63.14
2018-06-09T20:13:32.444Z,62.69
2018-06-09T20:16:02.818Z,63.12
2018-06-09T20:18:33.253Z,63.52
2018-06-09T20:21:03.663Z,63.51
2018-06-09T20:23:34.183Z,64.50
2018-06-09T20:26:07.109Z,63.72
2018-06-09T20:28:37.507Z,64.03
2018-06-09T20:31:08.014Z,64.39
2018-06-09T20:33:38.507Z,64.58
2018-06-09T20:36:09.463Z,64.87
2018-06-09T20:38:40.242Z,64.67
2018-06-09T20:41:10.707Z,64.61
2018-06-09T20:43:41.153Z,64.71
2018-06-09T20:46:11.679Z,64.19
2018-06-09T20:48:42.087Z,64.46
2018-06-09T20:51:12.623Z,64.60
2018-06-09T20:53:42.607Z,65.22
2018-06-09T20:56:12.983Z,64.50
2018-06-09T20:58:44.693Z,65.21
2018-06-09T21:01:15.061Z,65.55
2018-06-09T21:03:45.551Z,64.65
2018-06-09T21:06:15.883Z,64.83
2018-06-09T21:08:46.302Z,64.95
2018-06-09T21:11:16.685Z,65.18
2018-06-09T21:13:47.034Z,65.25
2018-06-09T21:16:17.425Z,65.39
2018-06-09T21:18:47.921Z,65.50
2018-06-09T21:21:18.521Z,65.99
2018-06-09T21:23:48.927Z,66.15
2018-06-09T21:26:19.261Z,67.21
2018-06-09T21:28:56.370Z,68.01
2018-06-09T21:31:31.898Z,68.66
2018-06-09T21:34:22.943Z,69.02
2018-06-09T21:36:57.671Z,69.16
2018-06-09T21:39:33.044Z,69.34
2018-06-09T21:42:08.894Z,68.87
2018-06-09T21:44:44.613Z,68.51
2018-06-09T21:47:14.999Z,68.93
2018-06-09T21:49:45.465Z,69.36
2018-06-09T21:52:15.896Z,69.15
2018-06-09T21:54:46.254Z,69.61
2018-06-09T21:57:16.618Z,69.72
2018-06-09T21:59:47.095Z,69.55
2018-06-09T22:02:17.447Z,70.27
2018-06-09T22:04:47.935Z,70.28
2018-06-09T22:07:18.464Z,70.12
2018-06-09T22:09:50.437Z,70.58
2018-06-09T22:12:20.864Z,70.10
2018-06-09T22:14:51.449Z,70.59
2018-06-09T22:17:21.971Z,70.57
2018-06-09T22:19:52.281Z,71.08
2018-06-09T22:22:22.660Z,70.72
2018-06-09T22:24:53.011Z,71.36
2018-06-09T22:27:24.353Z,70.89
2018-06-09T22:29:55.503Z,71.31
2018-06-09T22:32:25.926Z,71.95
2018-06-09T22:34:56.556Z,72.18
2018-06-09T22:37:26.721Z,71.94
2018-06-09T22:39:57.209Z,71.84
2018-06-09T22:42:27.640Z,71.94
2018-06-09T22:44:57.657Z,72.32
2018-06-09T22:47:28.060Z,72.53
2018-06-09T22:49:58.461Z,72.49
2018-06-09T22:52:28.933Z,72.94
2018-06-09T22:54:59.622Z,72.74
2018-06-09T22:57:30.380Z,72.81
2018-06-09T23:00:00.794Z,72.74
2018-06-09T23:02:31.339Z,72.86
2018-06-09T23:05:02.414Z,72.25
2018-06-09T23:07:32.912Z,72.54
2018-06-09T23:10:03.334Z,72.17
2018-06-09T23:12:33.886Z,71.62
2018-06-09T23:15:04.612Z,71.54
2018-06-09T23:17:34.712Z,71.40
2018-06-09T23:20:05.242Z,71.79
2018-06-09T23:22:35.698Z,71.15
2018-06-09T23:25:06.134Z,71.63
2018-06-09T23:27:36.728Z,71.55
2018-06-09T23:30:07.100Z,71.00
2018-06-09T23:32:37.592Z,71.12
2018-06-09T23:35:07.968Z,71.59
2018-06-09T23:37:38.323Z,71.78
2018-06-09T23:40:08.728Z,71.77
2018-06-09T23:42:39.076Z,72.09
2018-06-09T23:45:10.080Z,71.46
2018-06-09T23:47:40.404Z,72.48
2018-06-09T23:50:10.812Z,72.66
2018-06-09T23:52:41.130Z,72.83
2018-06-09T23:55:11.576Z,72.70
2018-06-09T23:57:41.991Z,72.84
